createdAt,value
2022-12-20T00:01:39.990Z,102869.14
2022-12-20T00:04:09.021Z,102860.61
2022-12-20T00:06:38.505Z,102859.48
2022-12-20T00:09:09.520Z,102859.48
2022-12-20T00:11:41.288Z,102862.70
2022-12-20T00:14:11.362Z,102862.70
2022-12-20T00:16:40.665Z,102854.27
2022-12-20T00:19:11.164Z,102853.14
2022-12-20T00:21:40.258Z,102853.14
2022-12-20T00:24:09.706Z,102841.89
2022-12-20T00:26:40.049Z,102840.70
2022-12-20T00:29:09.323Z,102843.15
2022-12-20T00:31:38.956Z,102840.92
2022-12-20T00:34:07.975Z,102832.37
2022-12-20T00:36:37.074Z,102830.95
2022-12-20T00:39:06.093Z,102830.95
2022-12-20T00:41:36.432Z,102823.75
2022-12-20T00:44:06.331Z,102820.72
2022-12-20T00:46:36.086Z,102813.52
2022-12-20T00:49:05.506Z,102811.61
2022-12-20T00:51:34.561Z,102811.61
2022-12-20T00:54:03.636Z,102814.59
2022-12-20T00:56:33.425Z,102812.45
2022-12-20T00:59:02.586Z,102812.45
2022-12-20T01:01:36.089Z,102807.22
2022-12-20T01:04:05.625Z,102799.70
2022-12-20T01:06:34.748Z,102799.70
2022-12-20T01:09:04.501Z,102815.69
2022-12-20T01:11:36.191Z,102815.69
2022-12-20T01:14:10.532Z,102799.00
2022-12-20T01:16:42.855Z,102794.91
2022-12-20T01:19:17.635Z,102800.75
2022-12-20T01:21:46.713Z,102800.75
2022-12-20T01:24:17.217Z,102793.27
2022-12-20T01:26:46.997Z,102803.82
2022-12-20T01:29:16.354Z,102798.09
2022-12-20T01:31:45.754Z,102789.76
2022-12-20T01:34:15.619Z,102789.76
2022-12-20T01:36:45.108Z,102777.34
2022-12-20T01:39:16.441Z,102782.39
2022-12-20T01:41:49.511Z,102782.39
2022-12-20T01:44:24.072Z,102786.18
2022-12-20T01:46:53.737Z,102773.48
2022-12-20T01:49:25.667Z,102776.70
2022-12-20T01:52:03.336Z,102771.31
2022-12-20T01:54:43.942Z,102771.31
2022-12-20T01:57:21.721Z,102770.14
2022-12-20T01:59:53.714Z,102772.69
2022-12-20T02:02:23.300Z,102767.17
2022-12-20T02:04:52.367Z,102759.88
2022-12-20T02:07:24.196Z,102752.28
2022-12-20T02:09:54.948Z,102759.03
2022-12-20T02:12:26.777Z,102757.94
2022-12-20T02:15:10.384Z,102754.63
2022-12-20T02:18:01.845Z,102752.30
2022-12-20T02:20:57.718Z,102733.64
2022-12-20T02:23:52.099Z,102733.64
2022-12-20T02:26:30.263Z,102741.36
2022-12-20T02:29:05.055Z,102741.36
2022-12-20T02:31:45.942Z,102739.47
2022-12-20T02:34:16.721Z,102746.20
2022-12-20T02:36:45.759Z,102745.67
2022-12-20T02:39:18.739Z,102741.31
2022-12-20T02:41:56.182Z,102737.38
2022-12-20T02:44:45.704Z,102737.38
2022-12-20T02:47:20.543Z,102748.26
2022-12-20T02:49:52.538Z,102748.26
2022-12-20T02:52:26.015Z,102731.41
2022-12-20T02:54:56.812Z,102734.37
2022-12-20T02:57:28.668Z,102751.52
2022-12-20T03:00:06.895Z,102751.52
2022-12-20T03:02:54.836Z,102737.17
2022-12-20T03:05:27.142Z,102743.94
2022-12-20T03:07:56.907Z,102743.94
2022-12-20T03:10:25.879Z,102742.10
2022-12-20T03:12:55.022Z,102748.46
2022-12-20T03:15:24.224Z,102748.46
2022-12-20T03:17:53.197Z,102737.98
2022-12-20T03:20:22.232Z,102735.48
2022-12-20T03:22:51.760Z,102739.67
2022-12-20T03:25:20.711Z,102730.03
2022-12-20T03:27:49.891Z,102727.39
2022-12-20T03:30:18.897Z,102732.66
2022-12-20T03:32:48.207Z,102738.20
2022-12-20T03:35:17.664Z,102721.48
2022-12-20T03:37:46.621Z,102720.33
2022-12-20T03:40:16.561Z,102733.00
2022-12-20T03:42:45.512Z,102733.00
2022-12-20T03:45:14.595Z,102748.80
2022-12-20T03:47:43.641Z,102748.80
2022-12-20T03:50:13.898Z,102750.97
2022-12-20T03:52:42.878Z,102744.27
2022-12-20T03:55:12.954Z,102744.27
2022-12-20T03:57:42.517Z,102741.05
2022-12-20T04:00:13.082Z,102741.05
2022-12-20T04:02:42.148Z,102728.41
2022-12-20T04:05:11.656Z,102736.62
2022-12-20T04:07:40.710Z,102728.17
2022-12-20T04:10:10.408Z,102728.17
2022-12-20T04:12:39.597Z,102730.83
2022-12-20T04:15:09.729Z,102734.52
2022-12-20T04:17:38.735Z,102734.52
2022-12-20T04:20:20.542Z,102740.20
2022-12-20T04:22:53.999Z,102740.20
2022-12-20T04:25:23.352Z,102750.57
2022-12-20T04:27:52.345Z,102756.14
2022-12-20T04:30:21.454Z,102756.14
2022-12-20T04:32:52.104Z,102759.23
2022-12-20T04:35:21.129Z,102748.58
2022-12-20T04:37:50.444Z,102753.86
2022-12-20T04:40:19.465Z,102757.87
2022-12-20T04:42:48.362Z,102757.87
2022-12-20T04:45:17.387Z,102729.62
2022-12-20T04:47:46.401Z,102749.00
2022-12-20T04:50:15.372Z,102745.62
2022-12-20T04:53:02.642Z,102749.52
2022-12-20T04:55:31.688Z,102747.20
2022-12-20T04:58:07.059Z,102752.91
2022-12-20T05:00:31.777Z,102756.86
2022-12-20T05:03:01.100Z,102741.64
2022-12-20T05:05:30.613Z,102736.92
2022-12-20T05:08:00.267Z,102745.33
2022-12-20T05:10:29.333Z,102745.33
2022-12-20T05:12:58.548Z,102745.42
2022-12-20T05:15:28.454Z,102745.42
2022-12-20T05:18:01.031Z,102735.31
2022-12-20T05:20:32.769Z,102735.31
2022-12-20T05:23:19.524Z,102740.01
2022-12-20T05:26:08.813Z,102738.89
2022-12-20T05:28:38.334Z,102746.92
2022-12-20T05:31:07.598Z,102746.92
2022-12-20T05:33:36.730Z,102760.77
2022-12-20T05:36:06.167Z,102758.98
2022-12-20T05:38:35.219Z,102758.98
2022-12-20T05:41:05.834Z,102768.56
2022-12-20T05:43:35.756Z,102768.56
2022-12-20T05:46:04.760Z,102779.64
2022-12-20T05:48:34.229Z,102779.64
2022-12-20T05:51:03.272Z,102775.01
2022-12-20T05:53:32.411Z,102768.16
2022-12-20T05:56:02.486Z,102758.73
2022-12-20T05:58:31.486Z,102772.13
2022-12-20T06:01:03.121Z,102777.49
2022-12-20T06:03:32.170Z,102781.50
2022-12-20T06:06:01.323Z,102781.85
2022-12-20T06:08:30.320Z,102776.67
2022-12-20T06:10:59.366Z,102770.52
2022-12-20T06:13:28.387Z,102770.52
2022-12-20T06:15:57.403Z,102771.13
2022-12-20T06:18:26.365Z,102771.09
2022-12-20T06:20:55.917Z,102756.47
2022-12-20T06:23:25.252Z,102759.69
2022-12-20T06:25:55.972Z,102743.97
2022-12-20T06:28:25.006Z,102750.52
2022-12-20T06:30:55.562Z,102750.52
2022-12-20T06:33:25.643Z,102741.79
2022-12-20T06:35:55.027Z,102741.79
2022-12-20T06:38:23.992Z,102744.85
2022-12-20T06:40:53.152Z,102740.60
2022-12-20T06:43:22.197Z,102740.60
2022-12-20T06:45:51.269Z,102724.89
2022-12-20T06:48:21.504Z,102717.80
2022-12-20T06:50:55.881Z,102731.98
2022-12-20T06:53:22.203Z,102728.00
2022-12-20T06:55:51.529Z,102734.56
2022-12-20T06:58:22.068Z,102734.41
2022-12-20T07:00:51.131Z,102725.67
2022-12-20T07:03:20.405Z,102725.67
2022-12-20T07:05:54.635Z,102728.24
2022-12-20T07:08:25.086Z,102738.25
2022-12-20T07:10:54.999Z,102737.77
2022-12-20T07:13:24.124Z,102742.70
2022-12-20T07:16:00.344Z,102741.98
2022-12-20T07:18:29.654Z,102743.16
2022-12-20T07:21:04.179Z,102753.75
2022-12-20T07:23:33.635Z,102739.75
2022-12-20T07:26:04.256Z,102743.95
2022-12-20T07:28:33.268Z,102733.85
2022-12-20T07:31:06.133Z,102751.20
2022-12-20T07:33:35.198Z,102753.62
2022-12-20T07:36:09.440Z,102753.62
2022-12-20T07:38:38.612Z,102735.66
2022-12-20T07:41:16.191Z,102746.34
2022-12-20T07:43:45.502Z,102741.06
2022-12-20T07:46:16.974Z,102733.30
2022-12-20T07:48:46.421Z,102727.80
2022-12-20T07:51:24.342Z,102735.61
2022-12-20T07:54:01.817Z,102726.30
2022-12-20T07:56:39.013Z,102717.05
2022-12-20T07:59:05.302Z,102717.05
2022-12-20T08:01:34.499Z,102720.39
2022-12-20T08:04:09.750Z,102726.01
2022-12-20T08:06:41.200Z,102714.17
2022-12-20T08:09:15.245Z,102718.05
2022-12-20T08:11:47.344Z,102703.61
2022-12-20T08:14:16.878Z,102708.83
2022-12-20T08:16:46.786Z,102709.04
2022-12-20T08:19:16.035Z,102694.77
2022-12-20T08:21:44.971Z,102693.11
2022-12-20T08:24:13.967Z,102691.08
2022-12-20T08:26:43.612Z,102681.66
2022-12-20T08:29:12.540Z,102675.39
2022-12-20T08:31:49.508Z,102659.70
2022-12-20T08:34:14.359Z,102676.30
2022-12-20T08:36:44.055Z,102676.30
2022-12-20T08:39:13.110Z,102672.70
2022-12-20T08:41:42.158Z,102665.61
2022-12-20T08:44:11.392Z,102660.05
2022-12-20T08:46:40.394Z,102667.86
2022-12-20T08:49:09.558Z,102650.44
2022-12-20T08:51:39.097Z,102650.44
2022-12-20T08:54:08.600Z,102649.23
2022-12-20T08:56:37.584Z,102642.23
2022-12-20T08:59:07.655Z,102642.23
2022-12-20T09:01:37.013Z,102641.36
2022-12-20T09:04:06.360Z,102641.36
2022-12-20T09:06:37.048Z,102616.98
2022-12-20T09:09:09.520Z,102616.98
2022-12-20T09:11:39.005Z,102598.20
2022-12-20T09:14:08.471Z,102591.51
2022-12-20T09:16:37.450Z,102591.51
2022-12-20T09:19:07.043Z,102571.18
2022-12-20T09:21:36.477Z,102571.18
2022-12-20T09:24:06.502Z,102570.56
2022-12-20T09:26:38.713Z,102572.25
2022-12-20T09:29:07.674Z,102568.44
2022-12-20T09:31:37.365Z,102568.44
2022-12-20T09:34:06.815Z,102550.91
2022-12-20T09:36:37.003Z,102550.91
2022-12-20T09:39:06.075Z,102551.30
2022-12-20T09:41:40.843Z,102546.10
2022-12-20T09:44:32.706Z,102533.91
2022-12-20T09:47:10.180Z,102514.41
2022-12-20T09:49:37.728Z,102513.07
2022-12-20T09:52:42.834Z,102511.76
2022-12-20T09:55:42.053Z,102501.70
2022-12-20T09:58:19.954Z,102492.44
2022-12-20T10:00:54.169Z,102486.94
2022-12-20T10:03:34.234Z,102480.23
2022-12-20T10:06:39.945Z,102474.70
2022-12-20T10:09:32.961Z,102458.77
2022-12-20T10:12:16.811Z,102456.05
2022-12-20T10:14:54.662Z,102448.96
2022-12-20T10:17:40.911Z,102439.94
2022-12-20T10:20:12.798Z,102440.16
2022-12-20T10:23:05.767Z,102420.76
2022-12-20T10:25:36.273Z,102431.81
2022-12-20T10:28:08.096Z,102431.81
2022-12-20T10:30:37.066Z,102416.89
2022-12-20T10:33:06.168Z,102411.96
2022-12-20T10:35:43.472Z,102409.59
2022-12-20T10:38:16.059Z,102405.63
2022-12-20T10:43:21.267Z,102406.53
2022-12-20T10:46:02.544Z,102413.36
2022-12-20T10:48:34.474Z,102408.37
2022-12-20T10:51:16.472Z,102408.37
2022-12-20T10:53:59.442Z,102394.58
2022-12-20T10:56:34.433Z,102374.26
2022-12-20T10:59:18.308Z,102391.67
2022-12-20T11:01:49.718Z,102373.34
2022-12-20T11:04:34.949Z,102369.66
2022-12-20T11:07:08.610Z,102367.39
2022-12-20T11:09:38.962Z,102365.61
2022-12-20T11:12:18.855Z,102365.61
2022-12-20T11:14:49.595Z,102359.86
2022-12-20T11:17:33.260Z,102367.14
2022-12-20T11:20:17.358Z,102357.77
2022-12-20T11:23:07.155Z,102357.11
2022-12-20T11:25:58.709Z,102357.90
2022-12-20T11:28:45.492Z,102357.90
2022-12-20T11:31:29.256Z,102347.77
2022-12-20T11:34:07.064Z,102349.14
2022-12-20T11:36:38.963Z,102356.19
2022-12-20T11:39:32.179Z,102346.48
2022-12-20T11:42:25.930Z,102342.53
2022-12-20T11:45:18.457Z,102335.22
2022-12-20T11:47:53.373Z,102344.94
2022-12-20T11:50:25.262Z,102344.94
2022-12-20T11:52:57.166Z,102345.49
2022-12-20T11:55:42.041Z,102343.26
2022-12-20T11:58:36.914Z,102343.26
2022-12-20T12:01:13.457Z,102320.88
2022-12-20T12:03:48.780Z,102312.84
2022-12-20T12:06:23.611Z,102325.28
2022-12-20T12:09:11.927Z,102325.28
2022-12-20T12:12:09.501Z,102314.47
2022-12-20T12:14:38.146Z,102302.83
2022-12-20T12:17:12.956Z,102302.83
2022-12-20T12:19:44.850Z,102301.98
2022-12-20T12:22:16.980Z,102310.16
2022-12-20T12:24:48.848Z,102309.58
2022-12-20T12:27:23.496Z,102304.63
2022-12-20T12:29:55.180Z,102302.66
2022-12-20T12:32:44.416Z,102298.63
2022-12-20T12:35:49.146Z,102298.63
2022-12-20T12:38:35.817Z,102303.43
2022-12-20T12:41:24.089Z,102303.43
2022-12-20T12:43:58.542Z,102285.39
2022-12-20T12:46:33.041Z,102277.39
2022-12-20T12:49:13.818Z,102269.44
2022-12-20T12:51:45.707Z,102264.52
2022-12-20T12:54:17.558Z,102264.52
2022-12-20T12:56:48.693Z,102259.81
2022-12-20T12:59:35.493Z,102258.93
2022-12-20T13:02:07.452Z,102244.71
2022-12-20T13:05:12.994Z,102242.75
2022-12-20T13:07:44.348Z,102231.69
2022-12-20T13:10:23.548Z,102245.19
2022-12-20T13:12:55.403Z,102240.78
2022-12-20T13:15:27.468Z,102238.63
2022-12-20T13:18:11.159Z,102241.35
2022-12-20T13:20:40.385Z,102241.35
2022-12-20T13:23:20.102Z,102234.61
2022-12-20T13:25:52.362Z,102242.58
2022-12-20T13:28:27.537Z,102229.08
2022-12-20T13:31:05.527Z,102229.08
2022-12-20T13:33:43.970Z,102222.70
2022-12-20T13:36:15.935Z,102224.45
2022-12-20T13:38:56.453Z,102202.33
2022-12-20T13:41:37.404Z,102198.70
2022-12-20T13:44:11.870Z,102186.86
2022-12-20T13:46:58.875Z,102186.86
2022-12-20T13:49:42.269Z,102186.88
2022-12-20T13:52:19.905Z,102193.06
2022-12-20T13:54:52.513Z,102193.06
2022-12-20T13:57:30.251Z,102185.64
2022-12-20T14:00:07.038Z,102180.67
2022-12-20T14:02:37.258Z,102185.23
2022-12-20T14:05:10.427Z,102185.23
2022-12-20T14:07:39.855Z,102181.41
2022-12-20T14:10:23.441Z,102182.16
2022-12-20T14:12:54.317Z,102176.00
2022-12-20T14:15:34.937Z,102176.00
2022-12-20T14:18:09.500Z,102164.48
2022-12-20T14:20:39.398Z,102164.48
2022-12-20T14:23:20.060Z,102169.08
2022-12-20T14:25:57.626Z,102161.80
2022-12-20T14:28:35.404Z,102154.67
2022-12-20T14:31:06.105Z,102154.67
2022-12-20T14:33:40.972Z,102146.03
2022-12-20T14:36:20.081Z,102139.55
2022-12-20T14:38:51.670Z,102128.00
2022-12-20T14:41:38.806Z,102128.00
2022-12-20T14:44:17.368Z,102125.11
2022-12-20T14:46:54.349Z,102105.16
2022-12-20T14:49:40.926Z,102096.09
2022-12-20T14:52:15.773Z,102084.11
2022-12-20T14:55:09.331Z,102085.59
2022-12-20T14:57:39.211Z,102080.55
2022-12-20T15:00:25.979Z,102067.63
2022-12-20T15:03:07.367Z,102067.63
2022-12-20T15:05:39.507Z,102061.31
2022-12-20T15:08:34.446Z,102047.82
2022-12-20T15:11:06.724Z,102055.14
2022-12-20T15:13:38.558Z,102055.14
2022-12-20T15:16:16.262Z,102050.84
2022-12-20T15:18:45.658Z,102057.11
2022-12-20T15:21:33.072Z,102056.84
2022-12-20T15:24:05.837Z,102042.54
2022-12-20T15:26:35.319Z,102042.34
2022-12-20T15:29:05.372Z,102042.34
2022-12-20T15:31:37.313Z,102037.84
2022-12-20T15:34:18.318Z,102039.16
2022-12-20T15:36:47.490Z,102037.30
2022-12-20T15:39:16.599Z,102027.17
2022-12-20T15:41:48.490Z,102027.36
2022-12-20T15:44:20.723Z,102021.48
2022-12-20T15:46:50.644Z,102020.89
2022-12-20T15:49:22.516Z,102027.77
2022-12-20T15:51:53.145Z,102027.77
2022-12-20T15:54:32.497Z,102030.36
2022-12-20T15:57:04.448Z,102012.30
2022-12-20T15:59:59.095Z,102012.30
2022-12-20T16:02:04.485Z,102001.80
2022-12-20T16:04:33.682Z,101991.72
2022-12-20T16:07:06.286Z,102000.72
2022-12-20T16:09:33.372Z,101991.17
2022-12-20T16:12:02.378Z,101983.78
2022-12-20T16:14:31.351Z,101975.75
2022-12-20T16:17:00.418Z,101970.97
2022-12-20T16:19:29.470Z,101965.85
2022-12-20T16:21:58.675Z,101965.85
2022-12-20T16:24:27.694Z,101955.34
2022-12-20T16:26:56.762Z,101962.38
2022-12-20T16:29:25.736Z,101967.59
2022-12-20T16:31:54.898Z,101963.88
2022-12-20T16:34:24.103Z,101961.06
2022-12-20T16:36:53.129Z,101955.24
2022-12-20T16:39:23.059Z,101949.56
2022-12-20T16:41:52.023Z,101953.56
2022-12-20T16:44:21.200Z,101953.56
2022-12-20T16:46:50.391Z,101939.81
2022-12-20T16:49:20.847Z,101939.81
2022-12-20T16:51:51.246Z,101928.68
2022-12-20T16:54:23.189Z,101928.68
2022-12-20T16:56:57.642Z,101932.80
2022-12-20T16:59:27.500Z,101922.39
2022-12-20T17:01:58.152Z,101914.27
2022-12-20T17:04:27.446Z,101917.25
2022-12-20T17:06:56.414Z,101920.06
2022-12-20T17:12:20.135Z,101915.11
2022-12-20T17:14:50.050Z,101915.11
2022-12-20T17:17:19.093Z,101897.06
2022-12-20T17:19:48.354Z,101889.45
2022-12-20T17:25:06.203Z,101886.54
2022-12-20T17:27:35.200Z,101875.05
2022-12-20T17:30:04.205Z,101868.23
2022-12-20T17:32:33.228Z,101862.95
2022-12-20T17:35:02.287Z,101857.84
2022-12-20T17:37:31.331Z,101860.83
2022-12-20T17:40:00.498Z,101860.83
2022-12-20T17:42:31.738Z,101843.79
2022-12-20T17:45:00.525Z,101843.37
2022-12-20T17:47:29.636Z,101843.37
2022-12-20T17:49:58.927Z,101842.89
2022-12-20T17:52:27.922Z,101846.27
2022-12-20T17:54:57.032Z,101846.27
2022-12-20T17:57:25.945Z,101850.05
2022-12-20T17:59:54.900Z,101850.05
2022-12-20T18:02:27.729Z,101841.03
2022-12-20T18:04:56.856Z,101843.65
2022-12-20T18:07:25.897Z,101852.34
2022-12-20T18:09:54.923Z,101853.27
2022-12-20T18:12:23.922Z,101849.80
2022-12-20T18:14:53.020Z,101841.03
2022-12-20T18:17:22.336Z,101841.58
2022-12-20T18:19:52.876Z,101836.63
2022-12-20T18:22:22.044Z,101839.31
2022-12-20T18:24:51.152Z,101841.41
2022-12-20T18:27:23.793Z,101838.06
2022-12-20T18:29:50.846Z,101841.16
2022-12-20T18:32:19.886Z,101841.16
2022-12-20T18:34:49.183Z,101841.44
2022-12-20T18:37:18.107Z,101833.06
2022-12-20T18:39:47.095Z,101833.17
2022-12-20T18:42:16.988Z,101835.62
2022-12-20T18:44:46.039Z,101835.62
2022-12-20T18:47:15.029Z,101836.20
2022-12-20T18:49:44.044Z,101837.94
2022-12-20T18:52:13.044Z,101839.73
2022-12-20T18:54:42.092Z,101831.33
2022-12-20T18:57:11.754Z,101831.33
2022-12-20T18:59:40.766Z,101840.67
2022-12-20T19:02:14.851Z,101838.97
2022-12-20T19:04:44.882Z,101840.75
2022-12-20T19:07:13.900Z,101840.50
2022-12-20T19:09:42.956Z,101832.71
2022-12-20T19:12:13.300Z,101829.65
2022-12-20T19:14:42.396Z,101842.41
2022-12-20T19:17:11.556Z,101846.21
2022-12-20T19:19:40.571Z,101846.21
2022-12-20T19:22:09.617Z,101845.99
2022-12-20T19:24:38.642Z,101845.99
2022-12-20T19:27:09.294Z,101837.52
2022-12-20T19:29:38.317Z,101833.47
2022-12-20T19:32:07.351Z,101831.70
2022-12-20T19:34:36.396Z,101833.11
2022-12-20T19:37:05.437Z,101824.78
2022-12-20T19:39:34.522Z,101824.78
2022-12-20T19:42:24.188Z,101816.85
2022-12-20T19:44:35.039Z,101817.39
2022-12-20T19:47:07.168Z,101812.14
2022-12-20T19:49:36.802Z,101805.77
2022-12-20T19:52:07.593Z,101806.20
2022-12-20T19:54:36.854Z,101809.00
2022-12-20T19:57:05.996Z,101809.00
2022-12-20T19:59:34.993Z,101795.10
2022-12-20T20:02:04.210Z,101793.47
2022-12-20T20:04:33.398Z,101801.05
2022-12-20T20:07:03.994Z,101801.05
2022-12-20T20:09:33.315Z,101791.27
2022-12-20T20:12:02.722Z,101791.27
2022-12-20T20:14:31.763Z,101796.56
2022-12-20T20:17:00.737Z,101798.02
2022-12-20T20:19:29.884Z,101791.17
2022-12-20T20:21:59.481Z,101791.17
2022-12-20T20:24:28.462Z,101786.89
2022-12-20T20:26:57.478Z,101776.55
2022-12-20T20:29:26.573Z,101775.20
2022-12-20T20:31:55.625Z,101775.20
2022-12-20T20:34:24.616Z,101774.38
2022-12-20T20:36:53.602Z,101770.56
2022-12-20T20:39:22.685Z,101761.23
2022-12-20T20:41:51.684Z,101761.23
2022-12-20T20:44:20.744Z,101768.18
2022-12-20T20:46:49.748Z,101764.92
2022-12-20T20:49:19.929Z,101770.37
2022-12-20T20:51:48.923Z,101761.34
2022-12-20T20:54:17.990Z,101761.34
2022-12-20T20:56:47.003Z,101763.09
2022-12-20T20:59:18.045Z,101765.63
2022-12-20T21:01:46.800Z,101767.55
2022-12-20T21:04:16.261Z,101760.75
2022-12-20T21:06:46.249Z,101766.27
2022-12-20T21:09:15.321Z,101757.20
2022-12-20T21:11:44.976Z,101760.19
2022-12-20T21:14:14.300Z,101755.50
2022-12-20T21:16:43.440Z,101752.00
2022-12-20T21:19:12.554Z,101759.88
2022-12-20T21:21:41.564Z,101747.87
2022-12-20T21:24:10.554Z,101747.87
2022-12-20T21:26:39.626Z,101749.06
2022-12-20T21:29:08.563Z,101754.19
2022-12-20T21:31:38.186Z,101750.80
2022-12-20T21:34:07.263Z,101752.20
2022-12-20T21:36:36.168Z,101753.36
2022-12-20T21:39:05.286Z,101753.36
2022-12-20T21:41:34.269Z,101745.96
2022-12-20T21:44:03.317Z,101745.96
2022-12-20T21:46:33.748Z,101751.16
2022-12-20T21:49:02.810Z,101746.75
2022-12-20T21:51:32.469Z,101741.19
2022-12-20T21:54:03.533Z,101730.53
2022-12-20T21:56:35.796Z,101730.53
2022-12-20T21:59:05.468Z,101721.59
2022-12-20T22:01:34.512Z,101718.73
2022-12-20T22:04:06.777Z,101709.14
2022-12-20T22:06:36.674Z,101709.14
2022-12-20T22:09:11.596Z,101709.50
2022-12-20T22:11:42.055Z,101708.43
2022-12-20T22:14:13.936Z,101702.70
2022-12-20T22:16:43.828Z,101709.59
2022-12-20T22:19:15.601Z,101708.34
2022-12-20T22:21:44.577Z,101700.72
2022-12-20T22:24:13.630Z,101690.90
2022-12-20T22:26:42.713Z,101690.90
2022-12-20T22:29:11.679Z,101695.67
2022-12-20T22:31:40.765Z,101677.98
2022-12-20T22:34:10.483Z,101677.98
2022-12-20T22:36:39.475Z,101669.16
2022-12-20T22:39:08.959Z,101671.94
2022-12-20T22:41:38.135Z,101671.94
2022-12-20T22:44:07.289Z,101675.48
2022-12-20T22:49:23.154Z,101654.08
2022-12-20T22:52:06.340Z,101654.60
2022-12-20T22:54:23.522Z,101654.60
2022-12-20T22:56:52.484Z,101636.36
2022-12-20T22:59:21.599Z,101640.12
2022-12-20T23:01:50.825Z,101636.41
2022-12-20T23:04:20.031Z,101627.27
2022-12-20T23:06:48.982Z,101627.27
2022-12-20T23:09:17.956Z,101628.36
2022-12-20T23:12:04.970Z,101627.15
2022-12-20T23:14:51.958Z,101627.15
2022-12-20T23:17:21.438Z,101616.25
2022-12-20T23:20:08.134Z,101616.25
2022-12-20T23:22:41.820Z,101616.88
2022-12-20T23:25:19.276Z,101617.00
2022-12-20T23:27:50.894Z,101608.18
2022-12-20T23:30:23.264Z,101605.84
2022-12-20T23:32:53.906Z,101600.14
2022-12-20T23:35:24.798Z,101600.14
2022-12-20T23:37:53.903Z,101597.83
2022-12-20T23:40:22.864Z,101597.02
2022-12-20T23:42:54.776Z,101607.52
2022-12-20T23:45:23.719Z,101602.42
2022-12-20T23:47:52.692Z,101609.92
2022-12-20T23:50:21.739Z,101609.00
2022-12-20T23:52:50.800Z,101593.38
2022-12-20T23:55:19.752Z,101595.17
2022-12-20T23:57:48.771Z,101595.17
